Terminal Aerodrome Forecast
Issued by NWS

Home | Current Version | Previous Version | Text Only | Print | Product List | Glossary On
Versions: 1 2 3 4 5 6 7 8 9 10 11 12 13 14 15 16
000
FTUS45 KPIH 270520
TAFSUN
TAF
KSUN 270520Z 2706/2812 31008KT P6SM SCT070 BKN100
     FM271800 14008KT P6SM -SHRA VCTS OVC080CB
     FM280300 VRB06KT P6SM SCT090
     FM280700 32008KT P6SM SKC
      AMD LTD TO CLD VIS AND WIND TIL 271300=

USA.gov is the U.S. government's official web portal to all federal, state and local government web resources and services.